Terminal Aerodrome Forecast
Issued by NWS Grand Junction, CO

Home | Current Version | Previous Version | Text Only | Print | Product List | Glossary On
Versions: 1 2 3 4 5 6 7 8 9 10 11 12 13 14 15 16 17 18 19 20
000
FTUS45 KGJT 250523
TAFGJT
TAF
KGJT 250523Z 2506/2606 13008KT P6SM FEW250
     FM252100 22011G19KT P6SM VCSH SCT060 BKN250
     FM260000 26007KT P6SM -SHRA OVC045
     FM260400 31006KT P6SM VCSH OVC045=

USA.gov is the U.S. government's official web portal to all federal, state and local government web resources and services.